createdAt,value
2022-10-25T00:01:20.549Z,90.05
2022-10-25T00:03:50.644Z,90.44
2022-10-25T00:06:18.375Z,90.13
2022-10-25T00:08:46.170Z,89.01
2022-10-25T00:11:21.874Z,89.77
2022-10-25T00:13:50.964Z,89.59
2022-10-25T00:16:20.671Z,89.11
2022-10-25T00:18:48.587Z,89.69
2022-10-25T00:21:16.386Z,89.50
2022-10-25T00:23:44.174Z,89.22
2022-10-25T00:26:12.866Z,91.56
2022-10-25T00:28:42.558Z,90.65
2022-10-25T00:31:13.328Z,92.63
2022-10-25T00:33:42.548Z,92.26
2022-10-25T00:36:12.432Z,90.99
2022-10-25T00:38:40.714Z,91.27
2022-10-25T00:41:09.358Z,90.91
2022-10-25T00:43:39.176Z,90.62
2022-10-25T00:46:14.810Z,89.88
2022-10-25T00:48:49.008Z,89.56
2022-10-25T00:51:16.823Z,89.39
2022-10-25T00:53:44.658Z,88.81
2022-10-25T00:56:17.255Z,88.39
2022-10-25T00:58:47.564Z,88.72
2022-10-25T01:01:16.841Z,88.29
2022-10-25T01:03:46.797Z,88.00
2022-10-25T01:06:19.862Z,88.01
2022-10-25T01:08:51.026Z,89.55
2022-10-25T01:11:19.636Z,88.85
2022-10-25T01:13:49.281Z,88.74
2022-10-25T01:16:28.726Z,89.59
2022-10-25T01:19:09.042Z,89.02
2022-10-25T01:21:48.579Z,88.79
2022-10-25T01:24:58.622Z,88.42
2022-10-25T01:27:48.513Z,88.09
2022-10-25T01:30:21.131Z,88.71
2022-10-25T01:32:59.491Z,89.77
2022-10-25T01:35:30.838Z,89.04
2022-10-25T01:38:18.791Z,89.41
2022-10-25T01:40:53.593Z,88.84
2022-10-25T01:43:31.807Z,88.70
2022-10-25T01:46:08.631Z,88.35
2022-10-25T01:48:42.538Z,88.80
2022-10-25T01:51:12.212Z,88.96
2022-10-25T01:53:47.064Z,88.77
2022-10-25T01:56:21.022Z,88.73
2022-10-25T01:59:01.358Z,88.73
2022-10-25T02:01:40.183Z,88.50
2022-10-25T02:04:18.455Z,87.80
2022-10-25T02:06:55.279Z,88.37
2022-10-25T02:09:32.761Z,89.49
2022-10-25T02:12:01.694Z,89.69
2022-10-25T02:14:35.451Z,89.62
2022-10-25T02:17:08.213Z,90.10
2022-10-25T02:19:40.974Z,90.23
2022-10-25T02:22:10.403Z,90.30
2022-10-25T02:24:40.488Z,90.43
2022-10-25T02:27:11.759Z,91.08
2022-10-25T02:29:40.844Z,90.72
2022-10-25T02:32:08.789Z,90.68
2022-10-25T02:34:37.855Z,91.92
2022-10-25T02:37:05.581Z,91.92
2022-10-25T02:39:34.476Z,91.91
2022-10-25T02:46:06.842Z,90.59
2022-10-25T02:48:34.662Z,90.90
2022-10-25T02:51:03.763Z,90.40
2022-10-25T02:53:33.859Z,90.82
2022-10-25T02:56:02.591Z,90.40
2022-10-25T02:58:31.971Z,90.37
2022-10-25T03:01:00.474Z,90.66
2022-10-25T03:03:29.391Z,90.68
2022-10-25T03:05:57.296Z,90.67
2022-10-25T03:08:29.319Z,90.41
2022-10-25T03:10:57.180Z,90.06
2022-10-25T03:13:24.943Z,91.04
2022-10-25T03:15:52.743Z,91.59
2022-10-25T03:18:20.547Z,90.46
2022-10-25T03:20:48.213Z,92.41
2022-10-25T03:23:16.308Z,91.25
2022-10-25T03:25:45.480Z,91.40
2022-10-25T03:28:13.234Z,90.52
2022-10-25T03:30:43.445Z,90.22
2022-10-25T03:33:11.303Z,90.86
2022-10-25T03:35:39.087Z,89.99
2022-10-25T03:38:06.821Z,89.81
2022-10-25T03:40:36.878Z,89.33
2022-10-25T03:43:05.990Z,88.90
2022-10-25T03:45:33.724Z,89.39
2022-10-25T03:48:01.479Z,89.62
2022-10-25T03:50:29.182Z,89.65
2022-10-25T03:52:57.012Z,89.70
2022-10-25T03:55:24.871Z,90.21
2022-10-25T03:57:52.605Z,89.76
2022-10-25T04:00:21.821Z,89.77
2022-10-25T04:02:59.336Z,90.00
2022-10-25T04:05:29.864Z,89.82
2022-10-25T04:07:57.573Z,90.16
2022-10-25T04:10:25.694Z,89.94
2022-10-25T04:12:54.880Z,90.17
2022-10-25T04:15:24.340Z,89.84
2022-10-25T04:17:52.743Z,89.92
2022-10-25T04:20:21.323Z,91.21
2022-10-25T04:22:54.984Z,90.73
2022-10-25T04:25:23.053Z,90.40
2022-10-25T04:27:50.768Z,91.00
2022-10-25T04:30:18.757Z,90.85
2022-10-25T04:32:48.396Z,90.73
2022-10-25T04:35:16.454Z,90.61
2022-10-25T04:37:44.139Z,91.05
2022-10-25T04:40:12.746Z,90.39
2022-10-25T04:42:40.562Z,91.36
2022-10-25T04:45:09.019Z,92.37
2022-10-25T04:47:37.104Z,91.77
2022-10-25T04:50:07.673Z,91.50
2022-10-25T04:52:35.396Z,91.45
2022-10-25T04:55:03.114Z,90.75
2022-10-25T04:57:30.859Z,90.63
2022-10-25T04:59:59.128Z,90.72
2022-10-25T05:02:27.117Z,90.72
2022-10-25T05:04:54.999Z,90.84
2022-10-25T05:07:26.517Z,90.89
2022-10-25T05:09:54.306Z,91.07
2022-10-25T05:12:24.379Z,90.39
2022-10-25T05:14:52.094Z,90.67
2022-10-25T05:17:19.763Z,91.38
2022-10-25T05:19:47.502Z,90.53
2022-10-25T05:22:15.299Z,89.85
2022-10-25T05:24:44.438Z,89.77
2022-10-25T05:27:12.320Z,89.43
2022-10-25T05:29:40.174Z,90.37
2022-10-25T05:32:08.270Z,89.54
2022-10-25T05:34:36.016Z,89.77
2022-10-25T05:37:03.741Z,89.49
2022-10-25T05:39:31.454Z,89.68
2022-10-25T05:42:06.224Z,90.31
2022-10-25T05:44:33.954Z,90.81
2022-10-25T05:47:01.661Z,91.05
2022-10-25T05:49:29.400Z,90.85
2022-10-25T05:51:57.366Z,91.19
2022-10-25T05:54:25.214Z,92.47
2022-10-25T05:56:53.083Z,91.80
2022-10-25T05:59:22.141Z,91.61
2022-10-25T06:01:50.316Z,90.91
2022-10-25T06:04:18.660Z,91.44
2022-10-25T06:06:48.127Z,93.13
2022-10-25T06:09:15.817Z,92.94
2022-10-25T06:11:43.726Z,92.65
2022-10-25T06:14:12.014Z,91.94
2022-10-25T06:16:41.132Z,91.81
2022-10-25T06:19:09.176Z,91.74
2022-10-25T06:21:37.054Z,91.63
2022-10-25T06:24:05.211Z,91.09
2022-10-25T06:26:33.476Z,90.67
2022-10-25T06:29:02.686Z,89.93
2022-10-25T06:31:31.902Z,89.74
2022-10-25T06:34:01.577Z,89.29
2022-10-25T06:36:31.077Z,89.68
2022-10-25T06:39:05.123Z,89.61
2022-10-25T06:41:36.769Z,89.06
2022-10-25T06:44:06.692Z,88.69
2022-10-25T06:46:52.598Z,88.11
2022-10-25T06:49:26.008Z,88.46
2022-10-25T06:51:53.698Z,87.93
2022-10-25T06:54:21.378Z,86.65
2022-10-25T06:56:49.230Z,85.63
2022-10-25T06:59:17.110Z,84.80
2022-10-25T07:01:44.962Z,84.00
2022-10-25T07:04:12.816Z,84.10
2022-10-25T07:06:42.057Z,82.15
2022-10-25T07:09:12.359Z,81.65
2022-10-25T07:11:42.921Z,81.61
2022-10-25T07:14:11.729Z,80.33
2022-10-25T07:16:39.634Z,81.74
2022-10-25T07:19:07.464Z,82.41
2022-10-25T07:21:35.566Z,80.37
2022-10-25T07:24:05.005Z,78.72
2022-10-25T07:26:35.933Z,77.34
2022-10-25T07:29:05.412Z,78.05
2022-10-25T07:31:36.377Z,79.02
2022-10-25T07:34:06.070Z,77.61
2022-10-25T07:36:34.061Z,75.88
2022-10-25T07:39:01.725Z,75.62
2022-10-25T07:41:30.859Z,76.28
2022-10-25T07:43:58.624Z,75.06
2022-10-25T07:46:26.600Z,74.44
2022-10-25T07:48:54.334Z,74.96
2022-10-25T07:51:22.132Z,75.13
2022-10-25T07:53:53.894Z,73.60
2022-10-25T07:56:23.918Z,72.59
2022-10-25T07:58:53.509Z,72.69
2022-10-25T08:01:23.482Z,72.04
2022-10-25T08:03:51.755Z,71.99
2022-10-25T08:06:20.808Z,71.21
2022-10-25T08:08:48.541Z,69.81
2022-10-25T08:11:18.914Z,71.37
2022-10-25T08:13:49.918Z,71.36
2022-10-25T08:16:19.375Z,68.48
2022-10-25T08:18:47.131Z,68.28
2022-10-25T08:21:14.896Z,69.34
2022-10-25T08:23:42.603Z,68.52
2022-10-25T08:26:10.351Z,70.85
2022-10-25T08:28:38.135Z,67.58
2022-10-25T08:31:06.122Z,66.97
2022-10-25T08:33:36.750Z,68.43
2022-10-25T08:36:04.882Z,67.28
2022-10-25T08:38:32.599Z,66.87
2022-10-25T08:41:10.176Z,65.61
2022-10-25T08:44:11.885Z,65.46
2022-10-25T08:46:43.486Z,65.78
2022-10-25T08:49:19.850Z,65.27
2022-10-25T08:51:50.549Z,64.79
2022-10-25T08:54:27.689Z,64.89
2022-10-25T08:57:15.068Z,63.30
2022-10-25T08:59:46.488Z,63.27
2022-10-25T09:02:21.433Z,63.83
2022-10-25T09:04:50.655Z,62.51
2022-10-25T09:07:40.573Z,63.97
2022-10-25T09:10:20.176Z,63.77
2022-10-25T09:12:57.330Z,64.46
2022-10-25T09:15:40.525Z,63.10
2022-10-25T09:18:16.422Z,63.21
2022-10-25T09:20:50.605Z,64.01
2022-10-25T09:23:25.962Z,63.74
2022-10-25T09:26:01.965Z,63.18
2022-10-25T09:28:45.139Z,61.91
2022-10-25T09:31:19.191Z,62.82
2022-10-25T09:33:48.527Z,62.65
2022-10-25T09:36:18.241Z,63.87
2022-10-25T09:38:49.683Z,62.56
2022-10-25T09:41:22.586Z,62.58
2022-10-25T09:43:59.114Z,62.96
2022-10-25T09:46:37.393Z,61.80
2022-10-25T09:49:17.657Z,63.40
2022-10-25T09:51:57.459Z,62.26
2022-10-25T09:54:30.483Z,61.94
2022-10-25T09:56:58.209Z,61.81
2022-10-25T09:59:27.785Z,62.75
2022-10-25T10:01:55.652Z,61.35
2022-10-25T10:04:26.788Z,60.74
2022-10-25T10:07:03.664Z,61.55
2022-10-25T10:09:33.256Z,61.16
2022-10-25T10:12:05.414Z,61.76
2022-10-25T10:14:37.808Z,60.26
2022-10-25T10:17:11.987Z,62.45
2022-10-25T10:19:40.438Z,61.43
2022-10-25T10:22:15.179Z,62.33
2022-10-25T10:24:44.689Z,62.75
2022-10-25T10:27:24.862Z,61.81
2022-10-25T10:29:57.335Z,62.62
2022-10-25T10:32:27.826Z,62.10
2022-10-25T10:34:57.508Z,62.32
2022-10-25T10:37:28.170Z,59.49
2022-10-25T10:39:57.883Z,59.24
2022-10-25T10:47:29.955Z,58.63
2022-10-25T10:49:57.705Z,55.73
2022-10-25T10:52:31.440Z,55.25
2022-10-25T10:55:01.052Z,55.43
2022-10-25T10:57:32.808Z,54.80
2022-10-25T11:00:02.385Z,54.30
2022-10-25T11:02:38.941Z,54.34
2022-10-25T11:05:20.628Z,54.18
2022-10-25T11:07:57.265Z,54.21
2022-10-25T11:10:36.589Z,57.16
2022-10-25T11:13:16.567Z,55.88
2022-10-25T11:16:10.744Z,55.91
2022-10-25T11:18:49.415Z,56.89
2022-10-25T11:22:00.640Z,56.47
2022-10-25T11:24:38.413Z,57.61
2022-10-25T11:27:18.786Z,57.06
2022-10-25T11:30:06.354Z,56.65
2022-10-25T11:33:09.068Z,62.16
2022-10-25T11:35:46.262Z,61.21
2022-10-25T11:38:20.698Z,63.32
2022-10-25T11:41:01.556Z,65.74
2022-10-25T11:43:47.451Z,64.51
2022-10-25T11:46:28.800Z,65.30
2022-10-25T11:49:12.446Z,66.06
2022-10-25T11:51:49.297Z,67.33
2022-10-25T11:54:29.625Z,67.07
2022-10-25T11:57:11.428Z,66.85
2022-10-25T11:59:50.786Z,66.68
2022-10-25T12:02:36.494Z,67.20
2022-10-25T12:05:18.530Z,65.64
2022-10-25T12:07:51.063Z,66.33
2022-10-25T12:10:26.754Z,64.63
2022-10-25T12:12:59.865Z,65.68
2022-10-25T12:15:36.424Z,66.06
2022-10-25T12:18:06.315Z,65.43
2022-10-25T12:20:36.175Z,65.33
2022-10-25T12:23:13.373Z,66.65
2022-10-25T12:25:45.208Z,66.43
2022-10-25T12:28:23.001Z,65.82
2022-10-25T12:30:57.319Z,65.46
2022-10-25T12:33:34.802Z,64.23
2022-10-25T12:36:07.105Z,62.20
2022-10-25T12:38:37.401Z,63.20
2022-10-25T12:41:09.770Z,62.54
2022-10-25T12:43:46.903Z,62.54
2022-10-25T12:46:49.099Z,62.76
2022-10-25T12:49:37.200Z,64.39
2022-10-25T12:52:21.163Z,64.08
2022-10-25T12:55:33.309Z,65.01
2022-10-25T12:58:24.556Z,62.65
2022-10-25T13:01:08.302Z,64.36
2022-10-25T13:03:52.179Z,64.35
2022-10-25T13:06:30.694Z,63.54
2022-10-25T13:09:05.467Z,64.23
2022-10-25T13:11:37.696Z,64.27
2022-10-25T13:14:06.031Z,64.39
2022-10-25T13:16:36.145Z,66.05
2022-10-25T13:19:30.591Z,65.59
2022-10-25T13:22:34.272Z,64.47
2022-10-25T13:25:16.775Z,65.10
2022-10-25T13:28:14.257Z,66.87
2022-10-25T13:30:44.140Z,66.97
2022-10-25T13:33:29.378Z,67.42
2022-10-25T13:36:01.856Z,69.00
2022-10-25T13:38:36.570Z,68.75
2022-10-25T13:41:18.981Z,68.07
2022-10-25T13:44:00.341Z,67.51
2022-10-25T13:46:33.569Z,67.14
2022-10-25T13:49:05.254Z,67.85
2022-10-25T13:51:33.810Z,67.64
2022-10-25T13:54:07.170Z,66.47
2022-10-25T13:56:50.967Z,66.79
2022-10-25T13:59:37.441Z,65.43
2022-10-25T14:02:18.185Z,67.01
2022-10-25T14:04:46.839Z,69.19
2022-10-25T14:07:53.986Z,68.29
2022-10-25T14:10:30.489Z,68.37
2022-10-25T14:13:12.192Z,68.25
2022-10-25T14:15:47.944Z,67.05
2022-10-25T14:18:21.504Z,67.52
2022-10-25T14:20:53.715Z,67.79
2022-10-25T14:23:23.995Z,67.78
2022-10-25T14:25:56.474Z,67.37
2022-10-25T14:28:28.529Z,67.27
2022-10-25T14:30:57.990Z,68.15
2022-10-25T14:33:32.163Z,68.17
2022-10-25T14:36:10.801Z,66.60
2022-10-25T14:38:52.169Z,66.63
2022-10-25T14:41:26.285Z,68.02
2022-10-25T14:43:54.352Z,67.95
2022-10-25T14:46:23.917Z,68.71
2022-10-25T14:48:58.455Z,66.46
2022-10-25T14:51:29.568Z,67.23
2022-10-25T14:54:01.306Z,66.37
2022-10-25T14:56:33.311Z,67.08
2022-10-25T14:59:02.618Z,68.25
2022-10-25T15:01:30.718Z,68.56
2022-10-25T15:04:01.672Z,68.30
2022-10-25T15:06:32.384Z,68.97
2022-10-25T15:09:41.244Z,68.58
2022-10-25T15:12:19.054Z,68.05
2022-10-25T15:14:48.283Z,68.40
2022-10-25T15:17:25.703Z,69.59
2022-10-25T15:20:08.035Z,69.22
2022-10-25T15:22:43.923Z,70.52
2022-10-25T15:25:20.031Z,70.61
2022-10-25T15:27:48.073Z,71.32
2022-10-25T15:30:34.379Z,71.00
2022-10-25T15:33:02.594Z,70.27
2022-10-25T15:35:33.438Z,70.87
2022-10-25T15:38:01.170Z,71.14
2022-10-25T15:40:28.979Z,71.41
2022-10-25T15:42:56.748Z,71.29
2022-10-25T15:45:24.445Z,70.95
2022-10-25T15:47:55.453Z,72.61
2022-10-25T15:50:23.634Z,73.46
2022-10-25T15:52:53.081Z,73.46
2022-10-25T15:55:23.570Z,74.45
2022-10-25T15:57:52.198Z,75.20
2022-10-25T16:00:25.723Z,75.05
2022-10-25T16:02:56.705Z,75.54
2022-10-25T16:05:27.104Z,77.05
2022-10-25T16:07:58.697Z,78.52
2022-10-25T16:10:27.951Z,77.27
2022-10-25T16:12:59.868Z,76.84
2022-10-25T16:15:28.018Z,76.01
2022-10-25T16:17:55.740Z,76.63
2022-10-25T16:20:27.101Z,77.87
2022-10-25T16:22:55.587Z,78.54
2022-10-25T16:25:30.464Z,78.37
2022-10-25T16:28:01.638Z,82.14
2022-10-25T16:30:36.564Z,82.26
2022-10-25T16:33:06.061Z,81.15
2022-10-25T16:35:33.863Z,81.09
2022-10-25T16:38:01.970Z,81.49
2022-10-25T16:40:31.714Z,80.78
2022-10-25T16:43:00.489Z,79.37
2022-10-25T16:45:30.783Z,79.10
2022-10-25T16:47:58.723Z,78.66
2022-10-25T16:50:28.323Z,79.03
2022-10-25T16:52:58.372Z,79.92
2022-10-25T16:55:28.744Z,82.84
2022-10-25T16:57:57.975Z,82.57
2022-10-25T17:00:26.415Z,80.88
2022-10-25T17:02:54.733Z,80.43
2022-10-25T17:05:24.907Z,80.05
2022-10-25T17:07:53.305Z,79.72
2022-10-25T17:10:23.864Z,80.52
2022-10-25T17:12:53.099Z,81.21
2022-10-25T17:15:24.297Z,84.61
2022-10-25T17:17:52.093Z,86.31
2022-10-25T17:20:20.344Z,88.73
2022-10-25T17:22:48.728Z,89.87
2022-10-25T17:25:17.308Z,86.91
2022-10-25T17:27:47.988Z,84.30
2022-10-25T17:30:17.061Z,84.96
2022-10-25T17:32:46.252Z,84.84
2022-10-25T17:35:14.042Z,86.23
2022-10-25T17:37:43.905Z,85.88
2022-10-25T17:40:13.636Z,84.88
2022-10-25T17:42:41.352Z,83.73
2022-10-25T17:45:10.148Z,84.05
2022-10-25T17:47:42.334Z,83.83
2022-10-25T17:50:12.815Z,83.40
2022-10-25T17:52:41.311Z,83.28
2022-10-25T17:55:11.167Z,85.38
2022-10-25T17:57:38.933Z,84.43
2022-10-25T18:00:07.929Z,83.98
2022-10-25T18:02:50.761Z,85.50
2022-10-25T18:05:22.040Z,85.17
2022-10-25T18:07:50.426Z,83.92
2022-10-25T18:10:18.550Z,83.93
2022-10-25T18:12:46.907Z,84.86
2022-10-25T18:15:14.915Z,84.44
2022-10-25T18:17:43.090Z,83.61
2022-10-25T18:20:11.386Z,85.61
2022-10-25T18:22:40.675Z,87.67
2022-10-25T18:25:08.975Z,86.92
2022-10-25T18:27:36.994Z,88.03
2022-10-25T18:30:05.269Z,87.57
2022-10-25T18:32:35.379Z,86.46
2022-10-25T18:35:04.484Z,86.65
2022-10-25T18:37:32.182Z,85.71
2022-10-25T18:40:01.311Z,86.36
2022-10-25T18:42:29.069Z,85.47
2022-10-25T18:44:56.790Z,84.58
2022-10-25T18:47:24.530Z,87.33
2022-10-25T18:49:52.306Z,87.48
2022-10-25T18:52:20.073Z,86.58
2022-10-25T18:54:47.778Z,86.45
2022-10-25T18:57:19.021Z,86.05
2022-10-25T18:59:47.498Z,86.31
2022-10-25T19:02:15.351Z,90.32
2022-10-25T19:04:43.211Z,88.91
2022-10-25T19:07:10.950Z,88.89
2022-10-25T19:09:38.724Z,89.96
2022-10-25T19:12:06.934Z,91.42
2022-10-25T19:14:35.983Z,92.61
2022-10-25T19:17:03.834Z,90.26
2022-10-25T19:19:31.570Z,89.84
2022-10-25T19:21:59.310Z,88.21
2022-10-25T19:24:27.158Z,89.38
2022-10-25T19:26:54.954Z,88.13
2022-10-25T19:29:22.720Z,87.05
2022-10-25T19:31:51.985Z,86.63
2022-10-25T19:34:20.563Z,89.96
2022-10-25T19:36:48.846Z,91.52
2022-10-25T19:39:16.565Z,94.43
2022-10-25T19:41:44.520Z,92.31
2022-10-25T19:44:12.199Z,89.90
2022-10-25T19:46:39.903Z,88.66
2022-10-25T19:49:11.035Z,87.63
2022-10-25T19:51:38.751Z,89.50
2022-10-25T19:54:06.560Z,89.46
2022-10-25T19:56:37.170Z,89.16
2022-10-25T19:59:05.017Z,88.92
2022-10-25T20:01:33.731Z,89.49
2022-10-25T20:04:01.648Z,90.18
2022-10-25T20:06:32.947Z,90.68
2022-10-25T20:09:01.885Z,91.82
2022-10-25T20:11:31.367Z,90.89
2022-10-25T20:14:01.774Z,89.53
2022-10-25T20:16:31.010Z,87.17
2022-10-25T20:19:01.023Z,86.23
2022-10-25T20:21:34.617Z,86.46
2022-10-25T20:24:04.388Z,84.64
2022-10-25T20:26:33.945Z,83.80
2022-10-25T20:29:04.459Z,83.62
2022-10-25T20:31:34.016Z,82.81
2022-10-25T20:34:04.143Z,83.08
2022-10-25T20:36:33.296Z,81.24
2022-10-25T20:39:01.082Z,79.67
2022-10-25T20:41:30.760Z,80.15
2022-10-25T20:44:00.704Z,79.53
2022-10-25T20:46:29.746Z,78.21
2022-10-25T20:48:58.270Z,78.29
2022-10-25T20:51:26.624Z,79.49
2022-10-25T20:53:56.807Z,85.24
2022-10-25T20:56:24.915Z,86.31
2022-10-25T20:58:52.961Z,84.88
2022-10-25T21:01:20.930Z,83.05
2022-10-25T21:03:48.819Z,82.14
2022-10-25T21:06:16.684Z,83.76
2022-10-25T21:08:46.858Z,87.01
2022-10-25T21:11:15.920Z,89.02
2022-10-25T21:13:43.602Z,87.26
2022-10-25T21:16:14.915Z,85.90
2022-10-25T21:18:43.590Z,86.51
2022-10-25T21:21:18.299Z,86.18
2022-10-25T21:23:46.232Z,86.54
2022-10-25T21:26:14.064Z,85.71
2022-10-25T21:28:43.197Z,87.13
2022-10-25T21:31:12.978Z,84.25
2022-10-25T21:33:41.710Z,81.76
2022-10-25T21:36:12.301Z,80.92
2022-10-25T21:38:40.654Z,83.10
2022-10-25T21:41:10.675Z,83.69
2022-10-25T21:43:45.052Z,82.20
2022-10-25T21:46:13.797Z,82.18
2022-10-25T21:48:41.919Z,81.95
2022-10-25T21:51:09.686Z,82.02
2022-10-25T21:53:37.425Z,81.85
2022-10-25T21:56:07.237Z,82.14
2022-10-25T21:58:35.037Z,83.47
2022-10-25T22:01:08.036Z,87.16
2022-10-25T22:03:35.913Z,86.39
2022-10-25T22:06:03.657Z,84.14
2022-10-25T22:08:31.512Z,87.16
2022-10-25T22:13:32.972Z,83.27
2022-10-25T22:16:02.387Z,81.09
2022-10-25T22:18:31.827Z,80.19
2022-10-25T22:21:00.899Z,81.50
2022-10-25T22:23:30.328Z,80.08
2022-10-25T22:26:00.779Z,81.40
2022-10-25T22:28:28.530Z,80.41
2022-10-25T22:30:59.767Z,78.90
2022-10-25T22:33:27.585Z,80.29
2022-10-25T22:35:56.705Z,80.46
2022-10-25T22:38:24.676Z,79.37
2022-10-25T22:40:59.550Z,78.78
2022-10-25T22:43:27.940Z,80.55
2022-10-25T22:45:56.089Z,82.22
2022-10-25T22:48:26.155Z,84.77
2022-10-25T22:50:56.356Z,84.71
2022-10-25T22:53:24.166Z,86.11
2022-10-25T22:55:56.508Z,84.64
2022-10-25T22:58:25.039Z,83.54
2022-10-25T23:00:53.257Z,81.14
2022-10-25T23:03:21.067Z,79.68
2022-10-25T23:05:48.802Z,78.89
2022-10-25T23:08:17.859Z,81.80
2022-10-25T23:10:45.595Z,86.67
2022-10-25T23:13:13.315Z,87.93
2022-10-25T23:15:41.169Z,88.34
2022-10-25T23:18:08.906Z,85.41
2022-10-25T23:20:36.685Z,82.38
2022-10-25T23:23:04.543Z,80.53
2022-10-25T23:25:35.458Z,79.41
2022-10-25T23:28:03.183Z,78.13
2022-10-25T23:30:33.503Z,80.01
2022-10-25T23:33:01.682Z,79.21
2022-10-25T23:35:33.526Z,80.88
2022-10-25T23:38:01.311Z,82.10
2022-10-25T23:40:31.475Z,84.36
2022-10-25T23:43:01.391Z,82.84
2022-10-25T23:45:29.158Z,80.55
2022-10-25T23:47:56.919Z,79.58
2022-10-25T23:50:25.137Z,79.18
2022-10-25T23:52:52.847Z,82.37
2022-10-25T23:55:22.657Z,82.23
2022-10-25T23:57:56.677Z,82.02
